sensor_id;sensor_type;location;lat;lon;timestamp;temperature;humidity
10304;DHT22;5197;48.152;8.590;2022-09-09T00:01:23;13.60;8.10
10304;DHT22;5197;48.152;8.590;2022-09-09T00:04:13;13.60;9.30
10304;DHT22;5197;48.152;8.590;2022-09-09T00:07:15;13.60;8.10
10304;DHT22;5197;48.152;8.590;2022-09-09T00:21:14;13.40;8.80
10304;DHT22;5197;48.152;8.590;2022-09-09T00:23:51;13.40;8.60
10304;DHT22;5197;48.152;8.590;2022-09-09T00:32:16;13.30;8.90
10304;DHT22;5197;48.152;8.590;2022-09-09T00:34:52;13.30;9.40
10304;DHT22;5197;48.152;8.590;2022-09-09T00:37:22;13.30;9.50
10304;DHT22;5197;48.152;8.590;2022-09-09T00:39:51;13.20;9.60
10304;DHT22;5197;48.152;8.590;2022-09-09T00:42:41;13.30;9.70
10304;DHT22;5197;48.152;8.590;2022-09-09T00:47:54;13.20;9.80
10304;DHT22;5197;48.152;8.590;2022-09-09T00:56:11;13.20;9.90
10304;DHT22;5197;48.152;8.590;2022-09-09T00:58:43;13.10;10.00
10304;DHT22;5197;48.152;8.590;2022-09-09T01:01:17;13.10;10.10
10304;DHT22;5197;48.152;8.590;2022-09-09T01:03:55;13.10;10.50
10304;DHT22;5197;48.152;8.590;2022-09-09T01:12:16;13.00;10.70
10304;DHT22;5197;48.152;8.590;2022-09-09T01:14:48;12.90;11.10
10304;DHT22;5197;48.152;8.590;2022-09-09T01:17:31;12.90;11.50
10304;DHT22;5197;48.152;8.590;2022-09-09T01:20:17;12.90;11.30
10304;DHT22;5197;48.152;8.590;2022-09-09T01:28:33;12.90;11.70
10304;DHT22;5197;48.152;8.590;2022-09-09T01:31:04;12.80;12.30
10304;DHT22;5197;48.152;8.590;2022-09-09T01:33:32;12.80;12.40
10304;DHT22;5197;48.152;8.590;2022-09-09T01:36:04;12.80;12.80
10304;DHT22;5197;48.152;8.590;2022-09-09T01:38:34;12.80;12.80
10304;DHT22;5197;48.152;8.590;2022-09-09T01:41:03;12.90;13.20
10304;DHT22;5197;48.152;8.590;2022-09-09T01:43:30;12.90;13.40
10304;DHT22;5197;48.152;8.590;2022-09-09T01:46:00;13.00;13.70
10304;DHT22;5197;48.152;8.590;2022-09-09T01:48:28;13.00;13.50
10304;DHT22;5197;48.152;8.590;2022-09-09T01:50:56;13.00;13.40
10304;DHT22;5197;48.152;8.590;2022-09-09T01:53:24;13.10;13.70
10304;DHT22;5197;48.152;8.590;2022-09-09T01:56:15;13.10;13.70
10304;DHT22;5197;48.152;8.590;2022-09-09T02:04:44;13.30;13.40
10304;DHT22;5197;48.152;8.590;2022-09-09T02:07:38;13.30;13.40
10304;DHT22;5197;48.152;8.590;2022-09-09T02:10:12;13.40;13.10
10304;DHT22;5197;48.152;8.590;2022-09-09T02:12:59;13.40;13.50
10304;DHT22;5197;48.152;8.590;2022-09-09T02:15:47;13.40;13.20
10304;DHT22;5197;48.152;8.590;2022-09-09T02:18:21;13.40;13.20
10304;DHT22;5197;48.152;8.590;2022-09-09T02:20:52;13.40;13.40
10304;DHT22;5197;48.152;8.590;2022-09-09T02:23:21;13.40;13.40
10304;DHT22;5197;48.152;8.590;2022-09-09T02:25:49;13.50;13.30
10304;DHT22;5197;48.152;8.590;2022-09-09T02:28:19;13.50;13.40
10304;DHT22;5197;48.152;8.590;2022-09-09T02:30:50;13.50;13.40
10304;DHT22;5197;48.152;8.590;2022-09-09T02:33:24;13.50;13.60
10304;DHT22;5197;48.152;8.590;2022-09-09T02:35:53;13.60;14.10
10304;DHT22;5197;48.152;8.590;2022-09-09T02:38:26;13.50;14.30
10304;DHT22;5197;48.152;8.590;2022-09-09T02:40:55;13.60;14.40
10304;DHT22;5197;48.152;8.590;2022-09-09T02:43:22;13.60;15.00
10304;DHT22;5197;48.152;8.590;2022-09-09T02:51:42;13.40;18.00
10304;DHT22;5197;48.152;8.590;2022-09-09T02:54:27;13.30;18.60
10304;DHT22;5197;48.152;8.590;2022-09-09T02:57:22;13.20;18.60
10304;DHT22;5197;48.152;8.590;2022-09-09T02:59:50;13.30;18.10
10304;DHT22;5197;48.152;8.590;2022-09-09T03:02:19;13.30;18.60
10304;DHT22;5197;48.152;8.590;2022-09-09T03:04:46;13.30;18.70
10304;DHT22;5197;48.152;8.590;2022-09-09T03:07:18;13.30;18.90
10304;DHT22;5197;48.152;8.590;2022-09-09T03:09:45;13.30;18.90
10304;DHT22;5197;48.152;8.590;2022-09-09T03:12:12;13.30;19.00
10304;DHT22;5197;48.152;8.590;2022-09-09T03:14:39;13.30;19.00
10304;DHT22;5197;48.152;8.590;2022-09-09T03:17:06;13.20;19.20
10304;DHT22;5197;48.152;8.590;2022-09-09T03:19:34;13.20;19.40
10304;DHT22;5197;48.152;8.590;2022-09-09T03:22:01;13.10;19.60
10304;DHT22;5197;48.152;8.590;2022-09-09T03:24:30;13.10;20.10
10304;DHT22;5197;48.152;8.590;2022-09-09T03:26:57;13.00;20.50
10304;DHT22;5197;48.152;8.590;2022-09-09T03:29:24;13.00;20.60
10304;DHT22;5197;48.152;8.590;2022-09-09T03:31:51;13.00;21.00
10304;DHT22;5197;48.152;8.590;2022-09-09T03:34:18;13.00;21.70
10304;DHT22;5197;48.152;8.590;2022-09-09T03:36:45;12.90;22.60
10304;DHT22;5197;48.152;8.590;2022-09-09T03:39:12;13.00;22.80
10304;DHT22;5197;48.152;8.590;2022-09-09T03:41:41;12.90;22.70
10304;DHT22;5197;48.152;8.590;2022-09-09T03:44:07;13.00;22.80
10304;DHT22;5197;48.152;8.590;2022-09-09T03:46:34;13.00;22.80
10304;DHT22;5197;48.152;8.590;2022-09-09T03:49:01;13.00;22.70
10304;DHT22;5197;48.152;8.590;2022-09-09T03:51:28;13.00;22.70
10304;DHT22;5197;48.152;8.590;2022-09-09T03:53:55;13.00;22.80
10304;DHT22;5197;48.152;8.590;2022-09-09T03:56:24;12.90;22.70
10304;DHT22;5197;48.152;8.590;2022-09-09T03:58:51;12.90;22.70
10304;DHT22;5197;48.152;8.590;2022-09-09T04:01:18;12.90;22.70
10304;DHT22;5197;48.152;8.590;2022-09-09T04:03:45;12.80;22.70
10304;DHT22;5197;48.152;8.590;2022-09-09T04:06:13;12.80;23.10
10304;DHT22;5197;48.152;8.590;2022-09-09T04:08:41;12.80;23.70
10304;DHT22;5197;48.152;8.590;2022-09-09T04:11:08;12.80;23.80
10304;DHT22;5197;48.152;8.590;2022-09-09T04:13:37;12.80;24.00
10304;DHT22;5197;48.152;8.590;2022-09-09T04:16:06;12.80;24.20
10304;DHT22;5197;48.152;8.590;2022-09-09T04:18:34;12.90;24.50
10304;DHT22;5197;48.152;8.590;2022-09-09T04:21:02;12.80;24.60
10304;DHT22;5197;48.152;8.590;2022-09-09T04:23:30;12.90;24.90
10304;DHT22;5197;48.152;8.590;2022-09-09T04:25:58;12.90;25.10
10304;DHT22;5197;48.152;8.590;2022-09-09T04:28:29;12.90;25.40
10304;DHT22;5197;48.152;8.590;2022-09-09T04:30:56;12.90;25.30
10304;DHT22;5197;48.152;8.590;2022-09-09T04:33:26;12.90;25.40
10304;DHT22;5197;48.152;8.590;2022-09-09T04:35:53;12.90;25.50
10304;DHT22;5197;48.152;8.590;2022-09-09T04:38:20;12.90;25.50
10304;DHT22;5197;48.152;8.590;2022-09-09T04:40:50;13.00;25.60
10304;DHT22;5197;48.152;8.590;2022-09-09T04:43:18;13.00;25.70
10304;DHT22;5197;48.152;8.590;2022-09-09T04:45:48;13.00;25.70
10304;DHT22;5197;48.152;8.590;2022-09-09T04:48:15;13.00;25.70
10304;DHT22;5197;48.152;8.590;2022-09-09T04:50:42;13.00;25.80
10304;DHT22;5197;48.152;8.590;2022-09-09T04:53:09;12.90;25.80
10304;DHT22;5197;48.152;8.590;2022-09-09T04:55:36;13.00;25.80
10304;DHT22;5197;48.152;8.590;2022-09-09T04:58:07;13.00;25.90
10304;DHT22;5197;48.152;8.590;2022-09-09T05:00:35;13.00;25.60
10304;DHT22;5197;48.152;8.590;2022-09-09T05:03:04;12.90;26.00
10304;DHT22;5197;48.152;8.590;2022-09-09T05:05:32;12.90;26.20
10304;DHT22;5197;48.152;8.590;2022-09-09T05:08:04;12.90;26.40
10304;DHT22;5197;48.152;8.590;2022-09-09T05:10:32;12.90;26.50
10304;DHT22;5197;48.152;8.590;2022-09-09T05:12:59;12.90;26.50
10304;DHT22;5197;48.152;8.590;2022-09-09T05:15:26;12.90;26.80
10304;DHT22;5197;48.152;8.590;2022-09-09T05:17:58;12.90;27.20
10304;DHT22;5197;48.152;8.590;2022-09-09T05:20:26;12.90;27.40
10304;DHT22;5197;48.152;8.590;2022-09-09T05:22:54;13.00;27.90
10304;DHT22;5197;48.152;8.590;2022-09-09T05:25:21;13.00;28.10
10304;DHT22;5197;48.152;8.590;2022-09-09T05:27:48;13.00;28.40
10304;DHT22;5197;48.152;8.590;2022-09-09T05:30:16;13.10;28.80
10304;DHT22;5197;48.152;8.590;2022-09-09T05:32:45;13.10;28.80
10304;DHT22;5197;48.152;8.590;2022-09-09T05:35:13;13.20;29.20
10304;DHT22;5197;48.152;8.590;2022-09-09T05:37:40;13.20;29.30
10304;DHT22;5197;48.152;8.590;2022-09-09T05:40:07;13.20;29.60
10304;DHT22;5197;48.152;8.590;2022-09-09T05:42:34;13.30;29.70
10304;DHT22;5197;48.152;8.590;2022-09-09T05:45:01;13.30;29.80
10304;DHT22;5197;48.152;8.590;2022-09-09T05:47:28;13.40;29.90
10304;DHT22;5197;48.152;8.590;2022-09-09T05:49:55;13.40;29.90
10304;DHT22;5197;48.152;8.590;2022-09-09T05:52:22;13.40;29.90
10304;DHT22;5197;48.152;8.590;2022-09-09T05:54:50;13.50;29.90
10304;DHT22;5197;48.152;8.590;2022-09-09T05:57:17;13.50;30.00
10304;DHT22;5197;48.152;8.590;2022-09-09T05:59:46;13.50;30.00
10304;DHT22;5197;48.152;8.590;2022-09-09T06:02:13;13.60;30.00
10304;DHT22;5197;48.152;8.590;2022-09-09T06:04:40;13.60;30.00
10304;DHT22;5197;48.152;8.590;2022-09-09T06:07:07;13.60;30.20
10304;DHT22;5197;48.152;8.590;2022-09-09T06:09:34;13.60;30.10
10304;DHT22;5197;48.152;8.590;2022-09-09T06:12:01;13.60;30.20
10304;DHT22;5197;48.152;8.590;2022-09-09T06:14:28;13.70;30.30
10304;DHT22;5197;48.152;8.590;2022-09-09T06:16:55;13.70;30.50
10304;DHT22;5197;48.152;8.590;2022-09-09T06:19:23;13.80;30.70
10304;DHT22;5197;48.152;8.590;2022-09-09T06:21:53;13.80;30.60
10304;DHT22;5197;48.152;8.590;2022-09-09T06:24:20;13.90;30.70
10304;DHT22;5197;48.152;8.590;2022-09-09T06:26:47;13.90;30.50
10304;DHT22;5197;48.152;8.590;2022-09-09T06:29:13;13.90;30.70
10304;DHT22;5197;48.152;8.590;2022-09-09T06:31:40;13.90;30.80
10304;DHT22;5197;48.152;8.590;2022-09-09T06:34:08;14.00;30.80
10304;DHT22;5197;48.152;8.590;2022-09-09T06:36:37;14.10;30.70
10304;DHT22;5197;48.152;8.590;2022-09-09T06:39:05;14.10;30.60
10304;DHT22;5197;48.152;8.590;2022-09-09T06:41:39;14.10;30.40
10304;DHT22;5197;48.152;8.590;2022-09-09T06:44:06;14.20;30.20
10304;DHT22;5197;48.152;8.590;2022-09-09T06:46:33;14.20;30.10
10304;DHT22;5197;48.152;8.590;2022-09-09T06:49:02;14.30;30.50
10304;DHT22;5197;48.152;8.590;2022-09-09T06:51:32;14.30;30.40
10304;DHT22;5197;48.152;8.590;2022-09-09T06:54:01;14.40;30.40
10304;DHT22;5197;48.152;8.590;2022-09-09T06:56:34;14.40;30.20
10304;DHT22;5197;48.152;8.590;2022-09-09T06:59:04;14.40;29.90
10304;DHT22;5197;48.152;8.590;2022-09-09T07:01:34;14.50;29.90
10304;DHT22;5197;48.152;8.590;2022-09-09T07:04:03;14.50;29.70
10304;DHT22;5197;48.152;8.590;2022-09-09T07:06:33;14.40;29.90
10304;DHT22;5197;48.152;8.590;2022-09-09T07:09:04;14.40;30.00
10304;DHT22;5197;48.152;8.590;2022-09-09T07:11:38;14.40;30.10
10304;DHT22;5197;48.152;8.590;2022-09-09T07:14:05;14.40;30.10
10304;DHT22;5197;48.152;8.590;2022-09-09T07:16:32;14.40;30.50
10304;DHT22;5197;48.152;8.590;2022-09-09T07:19:00;14.50;30.60
10304;DHT22;5197;48.152;8.590;2022-09-09T07:21:29;14.50;30.70
10304;DHT22;5197;48.152;8.590;2022-09-09T07:23:57;14.50;30.90
10304;DHT22;5197;48.152;8.590;2022-09-09T07:26:26;14.50;31.00
10304;DHT22;5197;48.152;8.590;2022-09-09T07:28:54;14.50;31.10
10304;DHT22;5197;48.152;8.590;2022-09-09T07:31:34;14.60;31.30
10304;DHT22;5197;48.152;8.590;2022-09-09T07:34:04;14.60;31.10
10304;DHT22;5197;48.152;8.590;2022-09-09T07:36:33;14.70;31.70
10304;DHT22;5197;48.152;8.590;2022-09-09T07:39:03;14.60;31.80
10304;DHT22;5197;48.152;8.590;2022-09-09T07:41:42;14.70;31.80
10304;DHT22;5197;48.152;8.590;2022-09-09T07:44:14;14.80;31.60
10304;DHT22;5197;48.152;8.590;2022-09-09T07:46:42;14.80;31.90
10304;DHT22;5197;48.152;8.590;2022-09-09T07:49:09;14.80;31.90
10304;DHT22;5197;48.152;8.590;2022-09-09T07:51:39;14.80;31.80
10304;DHT22;5197;48.152;8.590;2022-09-09T07:54:09;14.90;31.80
10304;DHT22;5197;48.152;8.590;2022-09-09T07:56:38;14.90;31.80
10304;DHT22;5197;48.152;8.590;2022-09-09T07:59:07;14.90;32.20
10304;DHT22;5197;48.152;8.590;2022-09-09T08:01:42;14.90;33.00
10304;DHT22;5197;48.152;8.590;2022-09-09T08:04:15;15.00;34.70
10304;DHT22;5197;48.152;8.590;2022-09-09T08:06:49;15.10;35.40
10304;DHT22;5197;48.152;8.590;2022-09-09T08:09:16;15.30;37.80
10304;DHT22;5197;48.152;8.590;2022-09-09T08:11:44;15.70;42.40
10304;DHT22;5197;48.152;8.590;2022-09-09T08:14:12;16.20;45.60
10304;DHT22;5197;48.152;8.590;2022-09-09T08:16:41;16.60;43.30
10304;DHT22;5197;48.152;8.590;2022-09-09T08:19:09;17.10;41.80
10304;DHT22;5197;48.152;8.590;2022-09-09T08:21:38;17.60;40.10
10304;DHT22;5197;48.152;8.590;2022-09-09T08:24:08;18.10;35.90
10304;DHT22;5197;48.152;8.590;2022-09-09T08:26:37;18.70;32.90
10304;DHT22;5197;48.152;8.590;2022-09-09T08:29:06;19.20;28.10
10304;DHT22;5197;48.152;8.590;2022-09-09T08:31:35;19.40;25.10
10304;DHT22;5197;48.152;8.590;2022-09-09T08:34:04;19.40;21.80
10304;DHT22;5197;48.152;8.590;2022-09-09T08:36:35;19.20;20.00
10304;DHT22;5197;48.152;8.590;2022-09-09T08:39:04;19.00;19.20
10304;DHT22;5197;48.152;8.590;2022-09-09T08:53:16;18.40;17.30
10304;DHT22;5197;48.152;8.590;2022-09-09T08:55:50;18.40;16.40
10304;DHT22;5197;48.152;8.590;2022-09-09T08:58:26;18.40;16.70
10304;DHT22;5197;48.152;8.590;2022-09-09T09:09:13;18.20;14.50
10304;DHT22;5197;48.152;8.590;2022-09-09T09:14:23;18.00;14.30
10304;DHT22;5197;48.152;8.590;2022-09-09T09:16:58;17.90;14.00
10304;DHT22;5197;48.152;8.590;2022-09-09T09:19:27;17.80;13.00
10304;DHT22;5197;48.152;8.590;2022-09-09T09:22:06;17.80;12.40
10304;DHT22;5197;48.152;8.590;2022-09-09T09:29:57;17.80;13.20
10304;DHT22;5197;48.152;8.590;2022-09-09T09:33:28;17.90;13.40
10304;DHT22;5197;48.152;8.590;2022-09-09T09:35:52;17.90;12.60
10304;DHT22;5197;48.152;8.590;2022-09-09T09:38:25;17.90;12.90
10304;DHT22;5197;48.152;8.590;2022-09-09T09:41:12;17.90;12.50
10304;DHT22;5197;48.152;8.590;2022-09-09T09:43:40;18.00;13.00
10304;DHT22;5197;48.152;8.590;2022-09-09T09:46:23;18.00;11.90
10304;DHT22;5197;48.152;8.590;2022-09-09T09:49:04;18.10;10.80
10304;DHT22;5197;48.152;8.590;2022-09-09T09:51:33;18.10;10.80
10304;DHT22;5197;48.152;8.590;2022-09-09T09:56:40;18.10;9.80
10304;DHT22;5197;48.152;8.590;2022-09-09T09:59:37;18.10;8.10
10304;DHT22;5197;48.152;8.590;2022-09-09T10:02:22;18.20;7.00
10304;DHT22;5197;48.152;8.590;2022-09-09T10:05:22;18.20;7.90
10304;DHT22;5197;48.152;8.590;2022-09-09T10:08:12;18.30;7.50
10304;DHT22;5197;48.152;8.590;2022-09-09T10:29:54;18.70;3.40
10304;DHT22;5197;48.152;8.590;2022-09-09T10:35:19;18.80;3.40
10304;DHT22;5197;48.152;8.590;2022-09-09T10:46:05;18.80;1.00
10304;DHT22;5197;48.152;8.590;2022-09-09T10:56:56;19.00;1.00
10304;DHT22;5197;48.152;8.590;2022-09-09T10:59:31;19.00;1.00
10304;DHT22;5197;48.152;8.590;2022-09-09T11:02:29;19.00;1.00
10304;DHT22;5197;48.152;8.590;2022-09-09T11:05:05;19.00;1.00
10304;DHT22;5197;48.152;8.590;2022-09-09T11:07:47;19.10;1.00
10304;DHT22;5197;48.152;8.590;2022-09-09T11:12:54;19.30;1.00
10304;DHT22;5197;48.152;8.590;2022-09-09T11:15:31;19.30;1.00
10304;DHT22;5197;48.152;8.590;2022-09-09T11:18:04;19.30;1.00
10304;DHT22;5197;48.152;8.590;2022-09-09T11:20:31;19.40;1.00
10304;DHT22;5197;48.152;8.590;2022-09-09T11:23:06;19.50;1.00
10304;DHT22;5197;48.152;8.590;2022-09-09T11:25:39;19.40;1.00
10304;DHT22;5197;48.152;8.590;2022-09-09T11:34:08;19.50;1.00
10304;DHT22;5197;48.152;8.590;2022-09-09T11:42:23;19.70;1.00
10304;DHT22;5197;48.152;8.590;2022-09-09T11:44:51;19.80;1.00
10304;DHT22;5197;48.152;8.590;2022-09-09T11:47:27;19.90;1.00
10304;DHT22;5197;48.152;8.590;2022-09-09T11:50:31;20.00;1.00
10304;DHT22;5197;48.152;8.590;2022-09-09T11:53:24;19.80;1.00
10304;DHT22;5197;48.152;8.590;2022-09-09T11:56:07;19.50;1.00
10304;DHT22;5197;48.152;8.590;2022-09-09T11:58:44;19.20;1.00
10304;DHT22;5197;48.152;8.590;2022-09-09T12:01:28;19.00;1.00
10304;DHT22;5197;48.152;8.590;2022-09-09T12:04:09;19.00;1.00
10304;DHT22;5197;48.152;8.590;2022-09-09T12:19:42;19.00;1.00
10304;DHT22;5197;48.152;8.590;2022-09-09T12:25:06;19.10;1.00
10304;DHT22;5197;48.152;8.590;2022-09-09T12:30:54;19.30;1.00
10304;DHT22;5197;48.152;8.590;2022-09-09T12:33:23;19.30;1.00
10304;DHT22;5197;48.152;8.590;2022-09-09T12:35:55;18.70;1.00
10304;DHT22;5197;48.152;8.590;2022-09-09T12:38:30;19.50;1.00
10304;DHT22;5197;48.152;8.590;2022-09-09T12:40:59;19.70;1.00
10304;DHT22;5197;48.152;8.590;2022-09-09T12:43:28;19.70;1.00
10304;DHT22;5197;48.152;8.590;2022-09-09T12:46:01;19.60;1.00
10304;DHT22;5197;48.152;8.590;2022-09-09T12:48:36;19.40;1.00
10304;DHT22;5197;48.152;8.590;2022-09-09T12:51:16;19.50;1.00
10304;DHT22;5197;48.152;8.590;2022-09-09T12:53:44;19.50;1.00
10304;DHT22;5197;48.152;8.590;2022-09-09T12:56:25;19.70;1.00
10304;DHT22;5197;48.152;8.590;2022-09-09T12:58:55;20.00;1.00
10304;DHT22;5197;48.152;8.590;2022-09-09T13:01:28;20.00;1.00
10304;DHT22;5197;48.152;8.590;2022-09-09T13:03:56;20.10;1.00
10304;DHT22;5197;48.152;8.590;2022-09-09T13:06:28;20.20;1.00
10304;DHT22;5197;48.152;8.590;2022-09-09T13:09:00;20.40;1.00
10304;DHT22;5197;48.152;8.590;2022-09-09T13:11:35;20.50;1.00
10304;DHT22;5197;48.152;8.590;2022-09-09T13:14:03;20.60;1.00
10304;DHT22;5197;48.152;8.590;2022-09-09T13:16:32;20.70;1.00
10304;DHT22;5197;48.152;8.590;2022-09-09T13:19:09;20.70;1.00
10304;DHT22;5197;48.152;8.590;2022-09-09T13:21:40;20.80;1.00
10304;DHT22;5197;48.152;8.590;2022-09-09T13:24:30;20.70;1.00
10304;DHT22;5197;48.152;8.590;2022-09-09T13:27:04;20.20;1.00
10304;DHT22;5197;48.152;8.590;2022-09-09T13:29:32;20.00;1.00
10304;DHT22;5197;48.152;8.590;2022-09-09T13:32:16;19.80;1.00
10304;DHT22;5197;48.152;8.590;2022-09-09T13:34:51;19.70;1.00
10304;DHT22;5197;48.152;8.590;2022-09-09T13:37:37;19.50;1.00
10304;DHT22;5197;48.152;8.590;2022-09-09T13:40:05;19.70;1.00
10304;DHT22;5197;48.152;8.590;2022-09-09T13:42:37;19.90;1.00
10304;DHT22;5197;48.152;8.590;2022-09-09T13:45:14;20.20;1.00
10304;DHT22;5197;48.152;8.590;2022-09-09T13:47:42;20.40;1.00
10304;DHT22;5197;48.152;8.590;2022-09-09T13:50:35;20.60;1.00
10304;DHT22;5197;48.152;8.590;2022-09-09T13:53:02;20.70;1.00
10304;DHT22;5197;48.152;8.590;2022-09-09T13:55:30;20.70;1.00
10304;DHT22;5197;48.152;8.590;2022-09-09T13:58:02;20.60;1.00
10304;DHT22;5197;48.152;8.590;2022-09-09T14:00:31;20.40;1.00
10304;DHT22;5197;48.152;8.590;2022-09-09T14:02:58;20.10;1.00
10304;DHT22;5197;48.152;8.590;2022-09-09T14:05:30;19.80;1.00
10304;DHT22;5197;48.152;8.590;2022-09-09T14:07:58;19.50;1.00
10304;DHT22;5197;48.152;8.590;2022-09-09T14:10:27;19.30;1.00
10304;DHT22;5197;48.152;8.590;2022-09-09T14:12:54;19.20;1.00
10304;DHT22;5197;48.152;8.590;2022-09-09T14:15:21;19.00;1.00
10304;DHT22;5197;48.152;8.590;2022-09-09T14:17:48;18.90;1.00
10304;DHT22;5197;48.152;8.590;2022-09-09T14:20:15;18.80;1.00
10304;DHT22;5197;48.152;8.590;2022-09-09T14:22:44;18.80;1.00
10304;DHT22;5197;48.152;8.590;2022-09-09T14:25:12;18.70;1.00
10304;DHT22;5197;48.152;8.590;2022-09-09T14:27:41;18.70;1.00
10304;DHT22;5197;48.152;8.590;2022-09-09T14:30:09;18.70;1.00
10304;DHT22;5197;48.152;8.590;2022-09-09T14:32:36;18.60;1.00
10304;DHT22;5197;48.152;8.590;2022-09-09T14:35:03;18.50;1.00
10304;DHT22;5197;48.152;8.590;2022-09-09T14:37:30;18.40;1.00
10304;DHT22;5197;48.152;8.590;2022-09-09T14:39:58;18.40;1.00
10304;DHT22;5197;48.152;8.590;2022-09-09T14:42:25;18.30;1.00
10304;DHT22;5197;48.152;8.590;2022-09-09T14:44:53;18.20;1.00
10304;DHT22;5197;48.152;8.590;2022-09-09T14:47:20;18.20;1.00
10304;DHT22;5197;48.152;8.590;2022-09-09T14:49:47;18.40;1.00
10304;DHT22;5197;48.152;8.590;2022-09-09T14:52:16;18.40;1.00
10304;DHT22;5197;48.152;8.590;2022-09-09T14:54:43;18.50;1.00
10304;DHT22;5197;48.152;8.590;2022-09-09T14:57:10;18.50;1.00
10304;DHT22;5197;48.152;8.590;2022-09-09T14:59:37;18.60;1.00
10304;DHT22;5197;48.152;8.590;2022-09-09T15:02:04;18.70;1.00
10304;DHT22;5197;48.152;8.590;2022-09-09T15:04:31;18.80;1.00
10304;DHT22;5197;48.152;8.590;2022-09-09T15:06:58;18.80;1.00
10304;DHT22;5197;48.152;8.590;2022-09-09T15:09:25;19.00;1.00
10304;DHT22;5197;48.152;8.590;2022-09-09T15:11:52;19.20;1.00
10304;DHT22;5197;48.152;8.590;2022-09-09T15:14:19;19.40;1.00
10304;DHT22;5197;48.152;8.590;2022-09-09T15:16:51;19.70;1.00
10304;DHT22;5197;48.152;8.590;2022-09-09T15:19:21;19.80;1.00
10304;DHT22;5197;48.152;8.590;2022-09-09T15:21:48;19.90;1.00
10304;DHT22;5197;48.152;8.590;2022-09-09T15:24:34;19.90;1.00
10304;DHT22;5197;48.152;8.590;2022-09-09T15:27:22;19.70;1.00
10304;DHT22;5197;48.152;8.590;2022-09-09T15:30:10;19.50;1.00
10304;DHT22;5197;48.152;8.590;2022-09-09T15:32:37;19.50;1.00
10304;DHT22;5197;48.152;8.590;2022-09-09T15:35:06;19.60;1.00
10304;DHT22;5197;48.152;8.590;2022-09-09T15:37:33;19.60;1.00
10304;DHT22;5197;48.152;8.590;2022-09-09T15:40:00;19.50;1.00
10304;DHT22;5197;48.152;8.590;2022-09-09T15:42:27;19.40;1.00
10304;DHT22;5197;48.152;8.590;2022-09-09T15:44:56;19.20;1.00
10304;DHT22;5197;48.152;8.590;2022-09-09T15:47:23;18.90;1.00
10304;DHT22;5197;48.152;8.590;2022-09-09T15:49:50;18.70;1.00
10304;DHT22;5197;48.152;8.590;2022-09-09T15:52:17;18.60;1.00
10304;DHT22;5197;48.152;8.590;2022-09-09T15:54:44;18.60;1.00
10304;DHT22;5197;48.152;8.590;2022-09-09T15:57:12;18.70;1.00
10304;DHT22;5197;48.152;8.590;2022-09-09T15:59:39;18.70;1.00
10304;DHT22;5197;48.152;8.590;2022-09-09T16:02:07;18.70;1.00
10304;DHT22;5197;48.152;8.590;2022-09-09T16:04:34;18.60;1.00
10304;DHT22;5197;48.152;8.590;2022-09-09T16:07:03;18.60;1.00
10304;DHT22;5197;48.152;8.590;2022-09-09T16:09:31;18.50;1.00
10304;DHT22;5197;48.152;8.590;2022-09-09T16:11:59;18.50;1.00
10304;DHT22;5197;48.152;8.590;2022-09-09T16:14:28;18.40;1.00
10304;DHT22;5197;48.152;8.590;2022-09-09T16:16:55;18.40;1.00
10304;DHT22;5197;48.152;8.590;2022-09-09T16:19:23;18.30;1.00
10304;DHT22;5197;48.152;8.590;2022-09-09T16:21:50;18.30;1.00
10304;DHT22;5197;48.152;8.590;2022-09-09T16:24:19;18.30;1.00
10304;DHT22;5197;48.152;8.590;2022-09-09T16:26:48;18.30;1.00
10304;DHT22;5197;48.152;8.590;2022-09-09T16:29:16;18.20;1.00
10304;DHT22;5197;48.152;8.590;2022-09-09T16:31:48;18.20;1.00
10304;DHT22;5197;48.152;8.590;2022-09-09T16:34:16;18.20;1.00
10304;DHT22;5197;48.152;8.590;2022-09-09T16:36:44;18.20;1.00
10304;DHT22;5197;48.152;8.590;2022-09-09T16:39:17;18.20;1.00
10304;DHT22;5197;48.152;8.590;2022-09-09T16:41:45;18.20;1.00
10304;DHT22;5197;48.152;8.590;2022-09-09T16:44:15;18.10;1.00
10304;DHT22;5197;48.152;8.590;2022-09-09T16:46:43;18.10;1.00
10304;DHT22;5197;48.152;8.590;2022-09-09T16:49:12;18.00;1.00
10304;DHT22;5197;48.152;8.590;2022-09-09T16:51:43;18.00;1.00
10304;DHT22;5197;48.152;8.590;2022-09-09T16:54:11;18.00;1.00
10304;DHT22;5197;48.152;8.590;2022-09-09T16:56:40;17.90;1.00
10304;DHT22;5197;48.152;8.590;2022-09-09T16:59:19;17.90;1.00
10304;DHT22;5197;48.152;8.590;2022-09-09T17:01:49;17.90;1.00
10304;DHT22;5197;48.152;8.590;2022-09-09T17:04:19;17.90;1.00
10304;DHT22;5197;48.152;8.590;2022-09-09T17:06:48;17.90;1.00
10304;DHT22;5197;48.152;8.590;2022-09-09T17:09:19;18.00;1.00
10304;DHT22;5197;48.152;8.590;2022-09-09T17:11:47;18.00;1.00
10304;DHT22;5197;48.152;8.590;2022-09-09T17:14:18;18.00;1.00
10304;DHT22;5197;48.152;8.590;2022-09-09T17:16:46;17.90;1.00
10304;DHT22;5197;48.152;8.590;2022-09-09T17:19:13;17.90;1.00
10304;DHT22;5197;48.152;8.590;2022-09-09T17:21:40;17.90;1.00
10304;DHT22;5197;48.152;8.590;2022-09-09T17:24:27;17.90;1.00
10304;DHT22;5197;48.152;8.590;2022-09-09T17:26:56;17.70;1.00
10304;DHT22;5197;48.152;8.590;2022-09-09T17:29:24;17.50;1.00
10304;DHT22;5197;48.152;8.590;2022-09-09T17:31:51;17.30;1.00
10304;DHT22;5197;48.152;8.590;2022-09-09T17:34:18;17.10;1.00
10304;DHT22;5197;48.152;8.590;2022-09-09T17:36:45;17.00;1.00
10304;DHT22;5197;48.152;8.590;2022-09-09T17:39:12;16.90;1.00
10304;DHT22;5197;48.152;8.590;2022-09-09T17:41:40;16.80;1.00
10304;DHT22;5197;48.152;8.590;2022-09-09T17:44:07;16.70;1.00
10304;DHT22;5197;48.152;8.590;2022-09-09T17:46:44;16.70;1.00
10304;DHT22;5197;48.152;8.590;2022-09-09T17:49:14;16.70;2.00
10304;DHT22;5197;48.152;8.590;2022-09-09T17:51:43;16.60;3.00
10304;DHT22;5197;48.152;8.590;2022-09-09T17:54:21;16.50;1.90
10304;DHT22;5197;48.152;8.590;2022-09-09T17:56:51;16.50;1.90
10304;DHT22;5197;48.152;8.590;2022-09-09T17:59:18;16.50;1.80
10304;DHT22;5197;48.152;8.590;2022-09-09T18:01:47;16.40;1.80
10304;DHT22;5197;48.152;8.590;2022-09-09T18:04:16;16.50;1.90
10304;DHT22;5197;48.152;8.590;2022-09-09T18:06:46;16.40;1.80
10304;DHT22;5197;48.152;8.590;2022-09-09T18:09:19;16.30;1.80
10304;DHT22;5197;48.152;8.590;2022-09-09T18:11:49;16.40;1.80
10304;DHT22;5197;48.152;8.590;2022-09-09T18:14:19;16.30;2.10
10304;DHT22;5197;48.152;8.590;2022-09-09T18:16:47;16.30;1.80
10304;DHT22;5197;48.152;8.590;2022-09-09T18:19:18;14.60;1.00
10304;DHT22;5197;48.152;8.590;2022-09-09T18:21:45;16.20;2.00
10304;DHT22;5197;48.152;8.590;2022-09-09T18:24:14;16.20;2.50
10304;DHT22;5197;48.152;8.590;2022-09-09T18:26:42;16.20;2.70
10304;DHT22;5197;48.152;8.590;2022-09-09T18:29:11;16.10;3.10
10304;DHT22;5197;48.152;8.590;2022-09-09T18:31:39;16.10;3.40
10304;DHT22;5197;48.152;8.590;2022-09-09T18:34:11;15.90;3.60
10304;DHT22;5197;48.152;8.590;2022-09-09T18:36:44;15.90;4.90
10304;DHT22;5197;48.152;8.590;2022-09-09T18:39:15;15.90;4.20
10304;DHT22;5197;48.152;8.590;2022-09-09T18:41:44;15.80;4.50
10304;DHT22;5197;48.152;8.590;2022-09-09T18:44:17;15.70;4.60
10304;DHT22;5197;48.152;8.590;2022-09-09T18:46:46;15.70;4.70
10304;DHT22;5197;48.152;8.590;2022-09-09T18:49:14;15.60;5.10
10304;DHT22;5197;48.152;8.590;2022-09-09T18:51:43;15.60;5.30